createdAt,value
2019-05-12T00:00:28.726Z,8.73
2019-05-12T00:02:59.322Z,9.33
2019-05-12T00:05:28.952Z,7.33
2019-05-12T00:07:58.895Z,7.00
2019-05-12T00:10:28.483Z,9.93
2019-05-12T00:12:58.227Z,7.77
2019-05-12T00:15:28.150Z,6.60
2019-05-12T00:17:58.746Z,6.03
2019-05-12T00:20:28.545Z,6.33
2019-05-12T00:23:00.512Z,7.87
2019-05-12T00:25:29.688Z,8.37
2019-05-12T00:27:58.851Z,9.10
2019-05-12T00:30:58.018Z,9.00
2019-05-12T00:33:28.275Z,9.50
2019-05-12T00:35:58.744Z,6.93
2019-05-12T00:38:27.954Z,8.70
2019-05-12T00:40:58.303Z,6.97
2019-05-12T00:43:28.116Z,10.37
2019-05-12T00:45:58.684Z,8.10
2019-05-12T00:48:28.453Z,8.10
2019-05-12T00:50:58.410Z,7.70
2019-05-12T00:53:39.014Z,8.27
2019-05-12T00:55:58.773Z,8.37
2019-05-12T00:58:27.960Z,9.07
2019-05-12T01:00:59.518Z,9.00
2019-05-12T01:03:28.144Z,8.90
2019-05-12T01:05:57.860Z,9.83
2019-05-12T01:08:28.029Z,11.10
2019-05-12T01:10:58.315Z,13.50
2019-05-12T01:13:28.063Z,11.57
2019-05-12T01:15:58.645Z,13.70
2019-05-12T01:18:28.195Z,11.80
2019-05-12T01:20:58.319Z,10.50
2019-05-12T01:23:28.251Z,9.20
2019-05-12T01:25:58.598Z,10.77
2019-05-12T01:28:28.001Z,9.17
2019-05-12T01:30:59.133Z,8.23
2019-05-12T01:33:28.217Z,10.20
2019-05-12T01:35:58.631Z,9.00
2019-05-12T01:38:28.762Z,9.40
2019-05-12T01:40:58.531Z,12.23
2019-05-12T01:43:28.090Z,10.60
2019-05-12T01:45:58.939Z,11.00
2019-05-12T01:48:28.840Z,10.70
2019-05-12T01:50:58.105Z,11.47
2019-05-12T01:53:28.715Z,9.03
2019-05-12T01:55:58.531Z,11.07
2019-05-12T01:58:27.921Z,11.03
2019-05-12T02:00:58.879Z,11.20
2019-05-12T02:03:28.583Z,13.73
2019-05-12T02:05:59.319Z,11.17
2019-05-12T02:09:02.642Z,10.30
2019-05-12T02:11:34.395Z,12.00
2019-05-12T02:14:04.851Z,12.37
2019-05-12T02:16:34.248Z,13.03
2019-05-12T02:19:03.334Z,12.27
2019-05-12T02:21:32.498Z,12.57
2019-05-12T02:24:01.550Z,13.17
2019-05-12T02:26:30.625Z,16.87
2019-05-12T02:28:59.906Z,13.97
2019-05-12T02:31:29.759Z,20.27
2019-05-12T02:33:59.195Z,19.20
2019-05-12T02:36:28.479Z,15.53
2019-05-12T02:38:57.769Z,15.00
2019-05-12T02:41:26.983Z,16.60
2019-05-12T02:43:56.121Z,16.27
2019-05-12T02:46:25.866Z,17.37
2019-05-12T02:48:55.018Z,20.93
2019-05-12T02:51:25.018Z,17.20
2019-05-12T02:53:55.577Z,16.40
2019-05-12T02:56:25.803Z,18.97
2019-05-12T02:58:55.464Z,22.10
2019-05-12T03:01:24.647Z,16.07
2019-05-12T03:03:56.066Z,19.47
2019-05-12T03:06:27.112Z,17.80
2019-05-12T03:08:57.165Z,20.80
2019-05-12T03:11:27.551Z,15.50
2019-05-12T03:13:56.659Z,16.70
2019-05-12T03:16:25.958Z,18.67
2019-05-12T03:18:55.470Z,16.10
2019-05-12T03:21:24.728Z,16.77
2019-05-12T03:23:55.086Z,17.00
2019-05-12T03:26:24.979Z,21.50
2019-05-12T03:28:55.561Z,17.17
2019-05-12T03:31:31.211Z,17.50
2019-05-12T03:34:00.270Z,19.00
2019-05-12T03:36:34.770Z,16.27
2019-05-12T03:38:58.560Z,20.43
2019-05-12T03:41:27.773Z,15.90
2019-05-12T03:43:56.991Z,17.40
2019-05-12T03:46:26.238Z,19.13
2019-05-12T03:48:55.589Z,20.27
2019-05-12T03:51:26.793Z,18.67
2019-05-12T03:53:56.013Z,16.77
2019-05-12T03:56:26.133Z,17.17
2019-05-12T03:58:55.309Z,16.67
2019-05-12T04:01:25.473Z,18.13
2019-05-12T04:03:54.962Z,19.43
2019-05-12T04:06:24.709Z,16.93
2019-05-12T04:08:56.018Z,21.77
2019-05-12T04:11:25.344Z,19.40
2019-05-12T04:13:55.177Z,18.40
2019-05-12T04:16:25.106Z,18.30
2019-05-12T04:18:55.179Z,21.40
2019-05-12T04:21:24.809Z,21.53
2019-05-12T04:23:55.741Z,18.73
2019-05-12T04:26:25.559Z,20.93
2019-05-12T04:28:55.015Z,21.40
2019-05-12T04:31:25.041Z,17.73
2019-05-12T04:33:54.852Z,17.93
2019-05-12T04:36:24.990Z,21.07
2019-05-12T04:38:55.665Z,16.70
2019-05-12T04:41:26.229Z,15.27
2019-05-12T04:43:55.469Z,15.33
2019-05-12T04:46:25.436Z,14.23
2019-05-12T04:48:54.835Z,14.70
2019-05-12T04:51:25.845Z,16.27
2019-05-12T04:53:55.067Z,15.57
2019-05-12T04:56:25.012Z,15.03
2019-05-12T04:58:56.180Z,16.57
2019-05-12T05:01:25.669Z,15.40
2019-05-12T05:03:54.828Z,18.93
2019-05-12T05:06:25.285Z,13.73
2019-05-12T05:08:54.913Z,14.37
2019-05-12T05:11:24.930Z,16.60
2019-05-12T05:13:54.953Z,16.33
2019-05-12T05:16:25.100Z,16.00
2019-05-12T05:18:54.454Z,19.00
2019-05-12T05:21:24.123Z,13.20
2019-05-12T05:23:53.762Z,14.33
2019-05-12T05:26:27.837Z,15.50
2019-05-12T05:28:54.354Z,22.00
2019-05-12T05:31:24.337Z,15.40
2019-05-12T05:33:53.988Z,13.67
2019-05-12T05:36:25.109Z,13.57
2019-05-12T05:38:57.344Z,17.23
2019-05-12T05:41:24.723Z,14.53
2019-05-12T05:43:58.428Z,12.07
2019-05-12T05:46:25.035Z,13.57
2019-05-12T05:48:54.275Z,13.67
2019-05-12T05:51:23.918Z,13.70
2019-05-12T05:53:54.011Z,15.00
2019-05-12T05:56:38.340Z,14.53
2019-05-12T05:58:54.612Z,19.50
2019-05-12T06:01:24.734Z,15.70
2019-05-12T06:03:58.421Z,18.00
2019-05-12T06:06:24.661Z,16.80
2019-05-12T06:09:00.598Z,16.00
2019-05-12T06:11:30.044Z,16.20
2019-05-12T06:14:05.474Z,17.40
2019-05-12T06:16:30.157Z,18.10
2019-05-12T06:18:59.454Z,16.87
2019-05-12T06:21:29.079Z,14.53
2019-05-12T06:23:59.287Z,14.47
2019-05-12T06:26:33.300Z,18.63
2019-05-12T06:28:59.359Z,17.40
2019-05-12T06:31:30.024Z,14.20
2019-05-12T06:33:59.368Z,14.67
2019-05-12T06:36:28.451Z,14.37
2019-05-12T06:38:57.536Z,13.97
2019-05-12T06:41:29.602Z,13.77
2019-05-12T06:43:58.668Z,12.07
2019-05-12T06:46:28.119Z,14.87
2019-05-12T06:49:00.778Z,11.60
2019-05-12T06:51:28.215Z,10.90
2019-05-12T06:54:00.909Z,15.60
2019-05-12T06:56:31.011Z,13.20
2019-05-12T06:59:01.035Z,14.20
2019-05-12T07:01:33.325Z,9.47
2019-05-12T07:04:06.702Z,8.80
2019-05-12T07:06:33.933Z,11.80
2019-05-12T07:09:09.527Z,16.63
2019-05-12T07:11:44.993Z,7.93
2019-05-12T07:14:13.414Z,22.10
2019-05-12T07:16:38.938Z,9.93
2019-05-12T07:19:17.273Z,7.13
2019-05-12T07:21:39.611Z,6.97
2019-05-12T07:24:11.184Z,9.73
2019-05-12T07:26:39.665Z,10.53
2019-05-12T07:29:08.890Z,6.70
2019-05-12T07:31:38.115Z,10.90
2019-05-12T07:34:07.942Z,7.07
2019-05-12T07:36:37.629Z,6.83
2019-05-12T07:39:09.120Z,9.80
2019-05-12T07:41:42.400Z,9.30
2019-05-12T07:44:11.079Z,6.80
2019-05-12T07:46:45.709Z,6.60
2019-05-12T07:49:14.027Z,6.70
2019-05-12T07:51:44.665Z,7.43
2019-05-12T07:54:14.301Z,6.13
2019-05-12T07:56:44.204Z,7.63
2019-05-12T07:59:13.674Z,9.83
2019-05-12T08:01:51.716Z,7.37
2019-05-12T08:04:15.527Z,7.53
2019-05-12T08:06:46.652Z,7.80
2019-05-12T08:09:15.579Z,7.27
2019-05-12T08:11:44.741Z,9.20
2019-05-12T08:14:24.773Z,7.10
2019-05-12T08:16:44.633Z,6.67
2019-05-12T08:19:23.305Z,7.10
2019-05-12T08:21:49.157Z,6.73
2019-05-12T08:24:15.667Z,7.10
2019-05-12T08:26:49.583Z,6.90
2019-05-12T08:29:21.188Z,8.40
2019-05-12T08:31:46.645Z,9.47
2019-05-12T08:34:16.042Z,6.97
2019-05-12T08:36:53.334Z,5.90
2019-05-12T08:39:21.362Z,6.63
2019-05-12T08:41:47.482Z,6.40
2019-05-12T08:44:17.597Z,9.33
2019-05-12T08:46:52.050Z,11.80
2019-05-12T08:49:18.155Z,7.33
2019-05-12T08:51:49.609Z,10.73
2019-05-12T08:54:18.019Z,7.87
2019-05-12T08:56:50.994Z,11.03
2019-05-12T08:59:21.836Z,8.13
2019-05-12T09:01:48.995Z,8.30
2019-05-12T09:04:18.563Z,8.07
2019-05-12T09:06:50.211Z,9.13
2019-05-12T09:09:18.730Z,6.93
2019-05-12T09:11:48.039Z,11.27
2019-05-12T09:14:17.369Z,7.30
2019-05-12T09:16:46.627Z,6.10
2019-05-12T09:19:23.512Z,5.70
2019-05-12T09:21:46.882Z,6.10
2019-05-12T09:24:21.677Z,7.77
2019-05-12T09:26:47.368Z,9.90
2019-05-12T09:29:16.487Z,6.83
2019-05-12T09:31:45.573Z,6.93
2019-05-12T09:34:16.516Z,9.20
2019-05-12T09:36:45.883Z,6.80
2019-05-12T09:39:15.164Z,6.50
2019-05-12T09:41:50.537Z,6.50
2019-05-12T09:44:20.414Z,6.93
2019-05-12T09:46:46.892Z,6.20
2019-05-12T09:49:17.164Z,6.70
2019-05-12T09:51:46.291Z,7.97
2019-05-12T09:54:16.328Z,7.67
2019-05-12T09:56:49.805Z,8.20
2019-05-12T09:59:21.311Z,6.03
2019-05-12T10:01:47.900Z,7.60
2019-05-12T10:04:19.618Z,6.37
2019-05-12T10:06:48.680Z,8.63
2019-05-12T10:09:19.817Z,9.13
2019-05-12T10:11:53.866Z,7.53
2019-05-12T10:14:19.889Z,9.70
2019-05-12T10:16:49.930Z,12.90
2019-05-12T10:19:20.217Z,7.20
2019-05-12T10:21:55.210Z,10.40
2019-05-12T10:24:20.798Z,6.57
2019-05-12T10:26:50.681Z,11.30
2019-05-12T10:29:20.956Z,11.80
2019-05-12T10:31:50.494Z,7.67
2019-05-12T10:34:23.985Z,10.27
2019-05-12T10:36:54.105Z,7.57
2019-05-12T10:39:24.481Z,7.77
2019-05-12T10:41:54.792Z,7.90
2019-05-12T10:44:24.362Z,9.47
2019-05-12T10:46:56.451Z,7.27
2019-05-12T10:49:25.605Z,7.60
2019-05-12T10:51:55.180Z,8.27
2019-05-12T10:54:24.546Z,7.00
2019-05-12T10:56:54.630Z,5.37
2019-05-12T10:59:32.385Z,11.67
2019-05-12T11:01:55.720Z,7.23
2019-05-12T11:04:35.841Z,10.33
2019-05-12T11:06:55.952Z,11.90
2019-05-12T11:09:31.485Z,9.93
2019-05-12T11:11:58.302Z,7.50
2019-05-12T11:14:30.557Z,10.17
2019-05-12T11:17:02.140Z,8.63
2019-05-12T11:19:33.581Z,7.33
2019-05-12T11:22:03.619Z,6.30
2019-05-12T11:24:33.796Z,6.50
2019-05-12T11:27:04.080Z,7.67
2019-05-12T11:29:45.652Z,8.40
2019-05-12T11:32:04.982Z,6.97
2019-05-12T11:34:34.510Z,8.00
2019-05-12T11:37:04.130Z,6.20
2019-05-12T11:39:36.780Z,8.10
2019-05-12T11:42:04.581Z,6.37
2019-05-12T11:44:33.831Z,6.47
2019-05-12T11:47:03.745Z,9.43
2019-05-12T11:49:33.636Z,9.97
2019-05-12T11:52:09.171Z,8.87
2019-05-12T11:54:34.169Z,6.90
2019-05-12T11:57:03.241Z,7.83
2019-05-12T11:59:34.166Z,8.20
2019-05-12T12:02:03.603Z,6.73
2019-05-12T12:04:48.000Z,5.93
2019-05-12T12:07:17.816Z,12.53
2019-05-12T12:09:49.554Z,6.73
2019-05-12T12:12:19.819Z,9.50
2019-05-12T12:14:50.508Z,5.83
2019-05-12T12:17:22.884Z,10.43
2019-05-12T12:19:50.930Z,5.87
2019-05-12T12:22:26.443Z,7.83
2019-05-12T12:24:53.792Z,5.27
2019-05-12T12:27:23.496Z,6.83
2019-05-12T12:29:54.388Z,7.53
2019-05-12T12:32:23.480Z,6.27
2019-05-12T12:34:54.386Z,5.50
2019-05-12T12:37:24.430Z,5.23
2019-05-12T12:39:54.674Z,4.90
2019-05-12T12:42:24.259Z,6.60
2019-05-12T12:44:58.559Z,5.40
2019-05-12T12:47:24.439Z,4.97
2019-05-12T12:49:53.555Z,6.90
2019-05-12T12:52:24.382Z,3.93
2019-05-12T12:54:59.281Z,5.50
2019-05-12T12:57:26.248Z,4.60
2019-05-12T12:59:55.340Z,9.40
2019-05-12T13:02:24.952Z,4.50
2019-05-12T13:04:54.243Z,4.83
2019-05-12T13:07:24.163Z,3.47
2019-05-12T13:09:54.977Z,4.10
2019-05-12T13:12:27.266Z,3.87
2019-05-12T13:14:56.492Z,4.90
2019-05-12T13:17:28.295Z,3.93
2019-05-12T13:19:58.794Z,5.53
2019-05-12T13:22:29.676Z,4.20
2019-05-12T13:25:06.454Z,6.43
2019-05-12T13:27:30.096Z,4.03
2019-05-12T13:30:01.868Z,3.90
2019-05-12T13:32:35.704Z,4.23
2019-05-12T13:35:01.164Z,5.03
2019-05-12T13:37:30.333Z,5.00
2019-05-12T13:40:00.185Z,4.30
2019-05-12T13:42:35.235Z,3.90
2019-05-12T13:45:00.466Z,3.40
2019-05-12T13:47:35.508Z,3.10
2019-05-12T13:50:00.543Z,6.73
2019-05-12T13:52:30.421Z,7.27
2019-05-12T13:55:00.035Z,5.90
2019-05-12T13:57:30.873Z,3.90
2019-05-12T14:00:08.519Z,7.20
2019-05-12T14:02:33.481Z,4.30
2019-05-12T14:05:07.031Z,4.27
2019-05-12T14:07:34.548Z,6.73
2019-05-12T14:10:03.797Z,5.20
2019-05-12T14:12:32.974Z,2.87
2019-05-12T14:15:02.360Z,5.40
2019-05-12T14:17:38.774Z,3.43
2019-05-12T14:20:04.024Z,5.70
2019-05-12T14:22:33.973Z,5.33
2019-05-12T14:25:05.420Z,5.30
2019-05-12T14:27:34.279Z,3.87
2019-05-12T14:30:09.816Z,4.77
2019-05-12T14:32:34.556Z,4.83
2019-05-12T14:35:04.262Z,5.80
2019-05-12T14:37:33.676Z,3.53
2019-05-12T14:40:04.482Z,4.73
2019-05-12T14:42:39.581Z,6.60
2019-05-12T14:45:05.084Z,3.10
2019-05-12T14:47:34.196Z,9.47
2019-05-12T14:50:03.990Z,5.07
2019-05-12T14:52:33.415Z,4.40
2019-05-12T14:55:03.424Z,5.30
2019-05-12T14:57:37.462Z,4.70
2019-05-12T15:00:04.218Z,3.30
2019-05-12T15:02:33.383Z,6.03
2019-05-12T15:05:06.475Z,3.30
2019-05-12T15:07:33.466Z,4.30
2019-05-12T15:10:08.444Z,3.40
2019-05-12T15:12:33.765Z,3.13
2019-05-12T15:15:03.769Z,4.07
2019-05-12T15:17:33.830Z,4.87
2019-05-12T15:20:06.744Z,3.87
2019-05-12T15:22:34.068Z,3.50
2019-05-12T15:25:05.406Z,4.30
2019-05-12T15:27:42.327Z,4.00
2019-05-12T15:30:18.993Z,3.40
2019-05-12T15:32:37.478Z,3.37
2019-05-12T15:35:07.285Z,3.80
2019-05-12T15:37:39.012Z,2.93
2019-05-12T15:40:07.888Z,3.73
2019-05-12T15:42:37.260Z,4.30
2019-05-12T15:45:11.579Z,6.60
2019-05-12T15:47:37.849Z,2.60
2019-05-12T15:50:07.240Z,3.67
2019-05-12T15:52:42.262Z,2.93
2019-05-12T15:55:07.570Z,4.17
2019-05-12T15:57:36.760Z,2.73
2019-05-12T16:00:06.065Z,3.37
2019-05-12T16:02:35.186Z,3.20
2019-05-12T16:05:04.672Z,4.43
2019-05-12T16:07:35.731Z,3.27
2019-05-12T16:10:05.339Z,3.70
2019-05-12T16:12:34.794Z,8.60
2019-05-12T16:15:04.586Z,3.60
2019-05-12T16:17:34.263Z,3.07
2019-05-12T16:20:03.770Z,3.60
2019-05-12T16:22:37.237Z,3.03
2019-05-12T16:25:04.437Z,3.17
2019-05-12T16:27:37.261Z,5.03
2019-05-12T16:30:06.237Z,3.27
2019-05-12T16:32:43.053Z,4.60
2019-05-12T16:35:07.543Z,3.93
2019-05-12T16:37:36.661Z,5.30
2019-05-12T16:40:06.243Z,2.27
2019-05-12T16:42:40.935Z,4.97
2019-05-12T16:45:10.053Z,3.70
2019-05-12T16:47:37.864Z,2.43
2019-05-12T16:50:15.167Z,3.23
2019-05-12T16:52:40.708Z,2.43
2019-05-12T16:55:10.002Z,2.40
2019-05-12T16:57:47.490Z,3.40
2019-05-12T17:00:10.503Z,2.53
2019-05-12T17:02:42.210Z,3.07
2019-05-12T17:05:15.698Z,6.83
2019-05-12T17:07:44.106Z,3.37
2019-05-12T17:10:16.522Z,5.33
2019-05-12T17:12:44.363Z,5.57
2019-05-12T17:15:14.877Z,5.20
2019-05-12T17:17:45.085Z,3.63
2019-05-12T17:20:14.512Z,2.73
2019-05-12T17:22:54.046Z,3.40
2019-05-12T17:25:15.651Z,4.20
2019-05-12T17:27:45.216Z,1.90
2019-05-12T17:30:14.851Z,4.73
2019-05-12T17:32:57.602Z,3.40
2019-05-12T17:35:20.090Z,4.93
2019-05-12T17:37:46.376Z,3.60
2019-05-12T17:40:20.219Z,2.23
2019-05-12T17:42:46.838Z,4.57
2019-05-12T17:45:20.333Z,2.03
2019-05-12T17:47:47.092Z,2.47
2019-05-12T17:50:16.382Z,3.60
2019-05-12T17:52:50.420Z,3.90
2019-05-12T17:55:16.738Z,2.17
2019-05-12T17:57:50.401Z,3.00
2019-05-12T18:00:17.057Z,2.47
2019-05-12T18:02:49.415Z,1.93
2019-05-12T18:05:19.532Z,2.67
2019-05-12T18:07:51.331Z,2.73
2019-05-12T18:10:20.004Z,1.97
2019-05-12T18:12:49.348Z,2.33
2019-05-12T18:15:23.380Z,2.10
2019-05-12T18:17:49.985Z,4.50
2019-05-12T18:20:19.610Z,3.80
2019-05-12T18:22:49.850Z,3.50
2019-05-12T18:25:30.595Z,3.20
